LIMZ/CUF METAR and TAF weather

Enter ICAO airport designator
Station Type Date Time Source
LIMZ METAR 2020/01/23 19:50 UTC NOAA

LIMZ 231950Z 25005KT CAVOK 00/M02 Q1030


Station Type Date Time Source
LIMZ Decoded METAR 2020/01/23 19:50 UTC NOAA

Cuneo / Levaldigi, Italy (LIMZ) 44-32-47N 007-37-20E
Jan 23, 2020 - 02:50 PM EST / 2020.01.23 1950 UTC
Wind: from the WSW (250 degrees) at 6 MPH (5 KT):0
Visibility: greater than 7 mile(s):0
Temperature: 32 F (0 C)
Windchill: 26 F (-3 C):1
Dew Point: 28 F (-2 C)
Relative Humidity: 86%
Pressure (altimeter): 30.42 in. Hg (1030 hPa)
ob: LIMZ 231950Z 25005KT CAVOK 00/M02 Q1030
cycle: 20

Station Type Date Time Source
LIMZ TAF 2020/01/23 18:30 UTC NOAA

TAF
AMD LIMZ 232126Z 2318/2418 CNL

Example: see airport list